Terminal Aerodrome Forecast
Issued by NWS Sterling, VA

Current Version | Previous Version | Graphics & Text | Print | Product List | Glossary On
Versions: 1 2 3 4 5 6 7 8 9 10 11 12 13 14 15 16 17 18 19 20 21 22 23 24
768
FTUS41 KLWX 032049 AAA
TAFDCA
TAF AMD
KDCA 032049Z 0321/0418 01006KT P6SM -SHRA VCTS BKN030CB
     FM032300 03005KT P6SM -SHRA BKN030
     FM040300 06005KT P6SM OVC015
     FM040400 06005KT 4SM -DZ BR OVC008=

USA.gov is the U.S. government's official web portal to all federal, state and local government web resources and services.